KR-0466 weather

Youngdong Beach Tower Apartments Heliports
Busan, Busan Gwang'yeogsi, South Korea

Public forecast

Using degrees Celsius for public forecast. Weather courtesy of forecast.io.

Closest aviation weather report (METAR) to Youngdong Beach Tower Apartments Heliports

Closest report is Gimhae International Airport, 7.6 nm (14.1 km) NNW. Retrieved 2020/08/05 03:00 UTC (2 hours ago):

RKPK 050300Z 20016KT 9000 SCT010 BKN017 BKN030 30/25 Q1014

Closest aviation forecast (TAF) to Youngdong Beach Tower Apartments Heliports

Closest forecast is Gimhae International Airport, 7.6 nm (14.1 km) NNW. Retrieved 2020-08-05 00:00 UTC (5 hours ago):

TAF RKPK 042300Z 0500/0606 18010KT 1600 BR SCT005 BKN010 TX31/0506Z TN26/0521Z BECMG 0501/0502 4800 SCT015 BKN030 BKN200 BECMG 0509/0510 18008KT BECMG 0520/0521 18010KT -RA BR BKN015 BKN030 BECMG 0600/0601 1600 BKN010 BKN030